X  Tanca Dades meteorològiques de l'aviació METAR     LEVC Valencia Airport
Temperatura
25°C Temperatura
22°C Rosada
83% Humitat



Vent
3 KM/H
2 MPH
1 M/S
2 NUS



140°
SE
Condicions actuals

Sense núvols Sense núvols
Pressió 1010.92 (hPa) - 29.85 (inHg)
Visibilitat 6.2 (milla) - 10 (km)
Aeroport
Codi aeroport LEVC

Ubicació: Valencia Airport
Distància: 60 (km)

Metar:
LEVC 052300Z 14002KT CAVOK 25/22 Q1011 NOSIG

Temps: 06-08-2021 01:00 CEST